Time;durP1;ratioP1;P1;durP2;ratioP2;P2;SDS_P1;SDS_P2;PMS_P1;PMS_P2;Temp;Humidity;BMP_temperature;BMP_pressure;BME280_temperature;BME280_humidity;BME280_pressure;Samples;Min_cycle;Max_cycle;Signal;HPM_P1;HPM_P2
2023/03/26 00:01:07;;;;;;;0.80;0.80;;;16.80;69.50;;;;;;5003752;28;20562;-75
2023/03/26 00:03:33;;;;;;;1.15;0.98;;;16.90;69.50;;;;;;5018473;28;20096;-75
2023/03/26 00:06:06;;;;;;;1.20;0.70;;;16.90;69.20;;;;;;4986470;28;20050;-75
2023/03/26 00:08:33;;;;;;;1.48;0.60;;;16.90;69.10;;;;;;5004639;28;20419;-75
2023/03/26 00:10:59;;;;;;;0.80;0.60;;;16.90;69.20;;;;;;5006094;28;20422;-75
2023/03/26 00:13:25;;;;;;;0.98;0.70;;;16.80;69.30;;;;;;5007867;28;20049;-75
2023/03/26 00:15:51;;;;;;;0.55;0.55;;;16.80;69.30;;;;;;5005357;28;20128;-74
2023/03/26 00:18:18;;;;;;;0.88;0.70;;;16.80;69.10;;;;;;5005747;28;20041;-75
2023/03/26 00:20:44;;;;;;;0.77;0.75;;;16.80;69.00;;;;;;5005712;28;20042;-75
2023/03/26 00:23:10;;;;;;;0.95;0.77;;;16.90;69.00;;;;;;5009027;28;20049;-75
2023/03/26 00:25:38;;;;;;;0.88;0.77;;;16.80;69.10;;;;;;5012191;28;22035;-74
2023/03/26 00:28:05;;;;;;;0.98;0.63;;;16.90;69.00;;;;;;5010284;28;20053;-75
2023/03/26 00:30:32;;;;;;;0.40;0.40;;;16.80;69.00;;;;;;5009352;28;20053;-75
2023/03/26 00:32:58;;;;;;;0.90;0.60;;;16.80;69.10;;;;;;5005618;28;20033;-75
2023/03/26 00:35:23;;;;;;;0.50;0.43;;;16.80;69.20;;;;;;5008798;28;20053;-75
2023/03/26 00:37:50;;;;;;;0.43;0.43;;;16.80;69.10;;;;;;5006994;28;20507;-75
2023/03/26 00:40:16;;;;;;;0.75;0.60;;;16.80;69.10;;;;;;5007837;28;20038;-75
2023/03/26 00:42:41;;;;;;;0.50;0.40;;;16.80;69.10;;;;;;5008745;28;20048;-75
2023/03/26 00:45:08;;;;;;;0.35;0.35;;;16.80;69.00;;;;;;5008473;28;20128;-75
2023/03/26 00:47:33;;;;;;;0.60;0.50;;;16.80;69.10;;;;;;5010339;28;20042;-74
2023/03/26 00:50:00;;;;;;;0.85;0.50;;;16.80;69.30;;;;;;5007824;28;20045;-75
2023/03/26 00:52:27;;;;;;;0.73;0.57;;;16.70;69.20;;;;;;4991032;28;20473;-74
2023/03/26 00:54:53;;;;;;;0.88;0.70;;;16.70;69.10;;;;;;5006854;28;20061;-74
2023/03/26 00:57:20;;;;;;;0.85;0.50;;;16.70;69.20;;;;;;5007271;28;20105;-75
2023/03/26 00:59:46;;;;;;;1.00;0.47;;;16.70;69.30;;;;;;5007925;28;20066;-75
2023/03/26 01:02:15;;;;;;;0.60;0.60;;;16.70;69.20;;;;;;5005657;28;20421;-75
2023/03/26 01:04:43;;;;;;;0.65;0.63;;;16.80;69.10;;;;;;5007088;28;20042;-74
2023/03/26 01:07:11;;;;;;;0.70;0.50;;;16.80;69.00;;;;;;5023969;28;20056;-75
2023/03/26 01:09:44;;;;;;;0.40;0.40;;;16.80;69.00;;;;;;5007226;28;20104;-75
2023/03/26 01:12:12;;;;;;;0.70;0.60;;;16.70;69.00;;;;;;5021473;28;20507;-74
2023/03/26 01:14:38;;;;;;;0.70;0.60;;;16.80;68.90;;;;;;5007515;28;20042;-75
2023/03/26 01:17:05;;;;;;;0.63;0.43;;;16.80;68.90;;;;;;5008191;28;20274;-74
2023/03/26 01:19:43;;;;;;;0.32;0.32;;;16.70;69.10;;;;;;5008916;28;20042;-75
2023/03/26 01:22:11;;;;;;;0.50;0.50;;;16.70;69.00;;;;;;5008949;28;20045;-74
2023/03/26 01:24:38;;;;;;;0.32;0.32;;;16.70;69.10;;;;;;5023141;28;20426;-75
2023/03/26 01:27:26;;;;;;;0.22;0.22;;;16.70;69.20;;;;;;5009851;28;20443;-75
2023/03/26 01:30:11;;;;;;;0.40;0.40;;;16.60;69.20;;;;;;5001166;28;20038;-75
2023/03/26 01:32:50;;;;;;;0.50;0.50;;;16.70;69.20;;;;;;5004057;28;20045;-75
2023/03/26 01:35:16;;;;;;;0.30;0.30;;;16.70;69.10;;;;;;5005862;28;20049;-75
2023/03/26 01:37:45;;;;;;;0.57;0.57;;;16.70;69.10;;;;;;5006779;28;20357;-75
2023/03/26 01:40:41;;;;;;;0.32;0.32;;;16.70;69.00;;;;;;5007694;28;20418;-75
2023/03/26 01:43:27;;;;;;;0.60;0.50;;;16.70;69.00;;;;;;5022553;28;20403;-75
2023/03/26 01:45:53;;;;;;;0.80;0.50;;;16.70;69.10;;;;;;5005018;28;20044;-75
2023/03/26 01:48:19;;;;;;;0.60;0.60;;;16.70;69.90;;;;;;4974178;28;20399;-75
2023/03/26 01:50:45;;;;;;;0.60;0.50;;;16.70;69.10;;;;;;5006686;28;20049;-75
2023/03/26 01:53:11;;;;;;;0.50;0.50;;;16.60;69.10;;;;;;5007372;28;20125;-74
2023/03/26 01:56:00;;;;;;;0.40;0.38;;;16.70;69.20;;;;;;4989029;28;20045;-75
2023/03/26 01:58:32;;;;;;;0.38;0.32;;;16.70;69.10;;;;;;5005104;28;20042;-75
2023/03/26 02:01:23;;;;;;;0.40;0.40;;;16.60;69.00;;;;;;5006069;28;20130;-75
2023/03/26 02:04:01;;;;;;;0.57;0.40;;;16.60;69.00;;;;;;5018257;28;20113;-75
2023/03/26 02:06:36;;;;;;;1.05;0.73;;;16.60;69.20;;;;;;5004769;28;20454;-75
2023/03/26 02:09:07;;;;;;;0.60;0.40;;;16.70;69.10;;;;;;5003572;28;20058;-74
2023/03/26 02:11:33;;;;;;;0.65;0.50;;;16.60;69.00;;;;;;5023236;28;20080;-75
2023/03/26 02:13:59;;;;;;;0.43;0.43;;;16.60;69.00;;;;;;4988349;28;20042;-74
2023/03/26 02:16:24;;;;;;;0.50;0.50;;;16.60;69.00;;;;;;5006146;28;20052;-75
2023/03/26 02:18:54;;;;;;;0.45;0.35;;;16.60;69.00;;;;;;5005172;28;20133;-76
2023/03/26 02:21:21;;;;;;;0.68;0.40;;;16.70;69.00;;;;;;5007297;28;20103;-74
2023/03/26 02:23:49;;;;;;;0.65;0.63;;;16.60;68.90;;;;;;5006507;28;20049;-75
2023/03/26 02:26:16;;;;;;;0.60;0.40;;;16.60;68.90;;;;;;5005593;28;20058;-75
2023/03/26 02:28:42;;;;;;;0.70;0.47;;;16.60;69.00;;;;;;5007691;28;20507;-75
2023/03/26 02:31:12;;;;;;;0.70;0.50;;;16.60;69.00;;;;;;5022726;28;20052;-75
2023/03/26 02:33:38;;;;;;;0.75;0.30;;;16.60;69.00;;;;;;5003658;28;20041;-74
2023/03/26 02:36:04;;;;;;;0.68;0.40;;;16.60;68.90;;;;;;5005503;28;20060;-74
2023/03/26 02:38:34;;;;;;;0.40;0.40;;;16.60;69.00;;;;;;5006477;28;20042;-75
2023/03/26 02:41:00;;;;;;;0.40;0.30;;;16.60;69.00;;;;;;5006034;28;20519;-75
2023/03/26 02:43:25;;;;;;;0.68;0.47;;;16.60;68.90;;;;;;5008134;28;20403;-75
2023/03/26 02:45:51;;;;;;;1.13;0.52;;;16.60;68.90;;;;;;5006215;28;20045;-78
2023/03/26 02:48:17;;;;;;;0.52;0.47;;;16.60;68.90;;;;;;5007212;28;20042;-75
2023/03/26 02:50:42;;;;;;;0.40;0.32;;;16.60;69.00;;;;;;5006101;28;20503;-75
2023/03/26 02:53:08;;;;;;;0.43;0.28;;;16.60;69.00;;;;;;5004937;28;20606;-75
2023/03/26 02:55:34;;;;;;;0.68;0.38;;;16.60;69.00;;;;;;5007906;28;20046;-74
2023/03/26 02:57:59;;;;;;;0.60;0.47;;;16.50;69.00;;;;;;5006607;28;20514;-75
2023/03/26 03:00:25;;;;;;;1.25;0.40;;;16.60;69.00;;;;;;5006357;28;20061;-75
2023/03/26 03:02:51;;;;;;;0.50;0.45;;;16.60;69.00;;;;;;5003371;28;20044;-75
2023/03/26 03:05:17;;;;;;;0.70;0.50;;;16.60;69.00;;;;;;5005529;28;20423;-75
2023/03/26 03:07:45;;;;;;;0.50;0.50;;;16.60;68.90;;;;;;5004907;28;20593;-75
2023/03/26 03:10:12;;;;;;;0.40;0.38;;;16.60;69.00;;;;;;5020776;28;20049;-75
2023/03/26 03:12:39;;;;;;;0.80;0.50;;;16.50;68.80;;;;;;5005226;28;20037;-75
2023/03/26 03:15:05;;;;;;;0.85;0.50;;;16.60;68.90;;;;;;5007509;28;20065;-75
2023/03/26 03:17:31;;;;;;;0.57;0.38;;;16.60;69.00;;;;;;5004385;28;20046;-75
2023/03/26 03:19:57;;;;;;;0.98;0.50;;;16.50;68.90;;;;;;5004138;28;20526;-75
2023/03/26 03:22:22;;;;;;;0.80;0.60;;;16.50;68.80;;;;;;5006206;28;20053;-75
2023/03/26 03:24:48;;;;;;;1.42;0.68;;;16.50;68.90;;;;;;5005089;28;20061;-75
2023/03/26 03:27:14;;;;;;;0.85;0.50;;;16.50;68.90;;;;;;4970852;28;20057;-74
2023/03/26 03:29:40;;;;;;;0.80;0.47;;;16.50;68.90;;;;;;4985495;28;20038;-74
2023/03/26 03:32:05;;;;;;;0.90;0.63;;;16.50;68.90;;;;;;4984539;28;20418;-75
2023/03/26 03:34:31;;;;;;;0.50;0.40;;;16.50;68.90;;;;;;5003706;28;20069;-75
2023/03/26 03:36:56;;;;;;;0.68;0.47;;;16.50;68.90;;;;;;4973367;28;20053;-75
2023/03/26 03:39:22;;;;;;;0.73;0.50;;;16.50;69.00;;;;;;4987975;28;20042;-75
2023/03/26 03:41:48;;;;;;;0.50;0.50;;;16.50;69.00;;;;;;5008121;28;20050;-75
2023/03/26 03:44:15;;;;;;;0.45;0.32;;;16.50;69.00;;;;;;5004047;28;20565;-75
2023/03/26 03:46:41;;;;;;;0.70;0.50;;;16.50;69.00;;;;;;5006669;28;20042;-75
2023/03/26 03:49:06;;;;;;;0.60;0.50;;;16.50;69.00;;;;;;5005120;28;20556;-74
2023/03/26 03:51:32;;;;;;;0.65;0.40;;;16.50;68.90;;;;;;5005353;28;20052;-75
2023/03/26 03:53:58;;;;;;;0.60;0.47;;;16.50;69.00;;;;;;5006158;28;20046;-75
2023/03/26 03:56:24;;;;;;;0.52;0.52;;;16.50;69.00;;;;;;5007426;28;20053;-75
2023/03/26 03:58:50;;;;;;;0.70;0.52;;;16.50;69.70;;;;;;5007835;28;20050;-75
2023/03/26 04:01:16;;;;;;;0.50;0.50;;;16.50;69.00;;;;;;5007766;28;20162;-75
2023/03/26 04:03:44;;;;;;;1.70;0.60;;;16.50;69.00;;;;;;5024652;28;20037;-74
2023/03/26 04:06:11;;;;;;;0.68;0.60;;;16.50;69.00;;;;;;5006872;28;20561;-74
2023/03/26 04:08:36;;;;;;;2.83;0.70;;;16.50;68.90;;;;;;4990773;28;20037;-75
2023/03/26 04:11:02;;;;;;;0.88;0.45;;;16.50;68.90;;;;;;4992165;28;20096;-75
2023/03/26 04:13:28;;;;;;;0.85;0.55;;;16.50;69.00;;;;;;5010416;28;20052;-75
2023/03/26 04:15:54;;;;;;;0.80;0.55;;;16.50;68.90;;;;;;5008671;28;20478;-75
2023/03/26 04:18:21;;;;;;;0.45;0.40;;;16.50;69.80;;;;;;5006419;28;20038;-75
2023/03/26 04:20:46;;;;;;;0.40;0.20;;;16.40;68.90;;;;;;5009086;28;20523;-75
2023/03/26 04:23:16;;;;;;;0.57;0.40;;;16.40;69.00;;;;;;5011346;28;20048;-75
2023/03/26 04:25:52;;;;;;;0.75;0.50;;;16.40;68.90;;;;;;5010943;28;20046;-75
2023/03/26 04:28:29;;;;;;;0.52;0.30;;;16.50;69.00;;;;;;5007396;28;20041;-74
2023/03/26 04:30:55;;;;;;;0.70;0.40;;;16.40;68.80;;;;;;5007480;28;20053;-75
2023/03/26 04:33:21;;;;;;;0.30;0.25;;;16.40;69.20;;;;;;5007034;28;20500;-74
2023/03/26 04:35:47;;;;;;;0.60;0.30;;;16.50;68.80;;;;;;4989813;28;20053;-75
2023/03/26 04:38:15;;;;;;;0.35;0.30;;;16.40;68.80;;;;;;5010320;28;20057;-75
2023/03/26 04:40:42;;;;;;;0.88;0.38;;;16.40;68.70;;;;;;5007919;28;20056;-75
2023/03/26 04:43:16;;;;;;;0.38;0.30;;;16.40;68.90;;;;;;5018174;28;20042;-75
2023/03/26 04:45:42;;;;;;;0.22;0.22;;;16.40;68.80;;;;;;5006147;28;20507;-75
2023/03/26 04:48:13;;;;;;;0.32;0.30;;;16.40;68.70;;;;;;4993205;28;20052;-75
2023/03/26 04:50:41;;;;;;;0.65;0.50;;;16.40;68.80;;;;;;5006467;28;20046;-74
2023/03/26 04:53:15;;;;;;;0.60;0.40;;;16.40;69.60;;;;;;5007812;28;20030;-75
2023/03/26 04:55:44;;;;;;;0.47;0.35;;;16.40;68.70;;;;;;5008423;28;20038;-74
2023/03/26 04:58:12;;;;;;;0.65;0.52;;;16.40;68.80;;;;;;5005936;28;20119;-75
2023/03/26 05:00:39;;;;;;;0.40;0.40;;;16.40;68.80;;;;;;5005793;28;20127;-74
2023/03/26 05:03:05;;;;;;;0.70;0.30;;;16.40;68.70;;;;;;5005221;28;20133;-75
2023/03/26 05:05:30;;;;;;;0.68;0.30;;;16.40;68.70;;;;;;5022477;28;20065;-74
2023/03/26 05:07:56;;;;;;;0.40;0.25;;;16.40;68.80;;;;;;5005553;28;20045;-75
2023/03/26 05:10:22;;;;;;;0.90;0.40;;;16.40;68.70;;;;;;5006103;28;20137;-74
2023/03/26 05:12:48;;;;;;;0.85;0.30;;;16.40;69.40;;;;;;5023289;28;20169;-74
2023/03/26 05:15:13;;;;;;;0.38;0.38;;;16.40;68.50;;;;;;4975825;28;20416;-74
2023/03/26 05:17:40;;;;;;;0.57;0.40;;;16.40;68.70;;;;;;5007709;28;20143;-75
2023/03/26 05:20:11;;;;;;;0.55;0.40;;;16.40;68.60;;;;;;5005428;28;20037;-75
2023/03/26 05:22:37;;;;;;;0.30;0.30;;;16.40;68.50;;;;;;5003544;28;20033;-75
2023/03/26 05:25:03;;;;;;;0.30;0.30;;;16.40;68.60;;;;;;5007265;28;20030;-75
2023/03/26 05:27:29;;;;;;;0.50;0.40;;;16.40;68.70;;;;;;5008497;28;20026;-74
2023/03/26 05:30:00;;;;;;;0.20;0.20;;;16.40;68.80;;;;;;5007551;28;20041;-75
2023/03/26 05:32:25;;;;;;;0.57;0.32;;;16.40;68.60;;;;;;5003397;28;20082;-74
2023/03/26 05:34:51;;;;;;;0.40;0.30;;;16.40;68.70;;;;;;5004850;28;20077;-75
2023/03/26 05:37:18;;;;;;;0.95;0.40;;;16.40;68.90;;;;;;5005431;28;20423;-75
2023/03/26 05:39:44;;;;;;;0.43;0.30;;;16.40;68.70;;;;;;5021240;28;20117;-75
2023/03/26 05:42:10;;;;;;;0.90;0.55;;;16.40;68.80;;;;;;5006975;28;20466;-75
2023/03/26 05:44:36;;;;;;;0.45;0.30;;;16.40;68.70;;;;;;5007042;28;20567;-75
2023/03/26 05:47:02;;;;;;;0.50;0.50;;;16.40;68.70;;;;;;5010039;28;20100;-75
2023/03/26 05:49:28;;;;;;;0.50;0.30;;;16.40;68.70;;;;;;5000276;28;20389;-75
2023/03/26 05:51:53;;;;;;;0.32;0.30;;;16.40;69.40;;;;;;5006299;28;20026;-75
2023/03/26 05:54:19;;;;;;;0.55;0.30;;;16.40;68.70;;;;;;5006539;28;20128;-75
2023/03/26 05:56:44;;;;;;;0.20;0.20;;;16.40;68.80;;;;;;5008595;28;20499;-75
2023/03/26 05:59:10;;;;;;;0.32;0.30;;;16.40;68.70;;;;;;5006998;28;20037;-75
2023/03/26 06:01:35;;;;;;;0.65;0.40;;;16.40;68.80;;;;;;5005489;28;20050;-75
2023/03/26 06:04:01;;;;;;;0.80;0.30;;;16.40;68.80;;;;;;5006486;28;20045;-75
2023/03/26 06:06:27;;;;;;;0.38;0.30;;;16.40;69.50;;;;;;5005576;28;20046;-75
2023/03/26 06:08:53;;;;;;;0.45;0.20;;;16.40;68.70;;;;;;5006193;28;20431;-75
2023/03/26 06:11:18;;;;;;;0.40;0.40;;;16.40;68.40;;;;;;5003389;28;20046;-74
2023/03/26 06:13:44;;;;;;;0.40;0.20;;;16.40;68.60;;;;;;5007903;28;20121;-75
2023/03/26 06:16:10;;;;;;;0.50;0.40;;;16.40;68.50;;;;;;5008473;28;20041;-75
2023/03/26 06:18:36;;;;;;;0.35;0.30;;;16.40;68.70;;;;;;5006759;28;20045;-74
2023/03/26 06:21:03;;;;;;;0.57;0.30;;;16.40;68.80;;;;;;5005856;28;20038;-75
2023/03/26 06:23:28;;;;;;;0.52;0.28;;;16.40;68.70;;;;;;4986404;28;20081;-75
2023/03/26 06:25:54;;;;;;;0.20;0.20;;;16.40;68.90;;;;;;5003741;28;20485;-75
2023/03/26 06:28:20;;;;;;;6.43;0.47;;;16.40;68.70;;;;;;5005680;28;20553;-75
2023/03/26 06:30:46;;;;;;;0.30;0.20;;;16.40;68.60;;;;;;4999108;28;20046;-75
2023/03/26 06:33:11;;;;;;;0.40;0.20;;;16.40;68.50;;;;;;5004428;28;20045;-75
2023/03/26 06:35:37;;;;;;;0.77;0.30;;;16.40;68.40;;;;;;5004542;28;20045;-75
2023/03/26 06:38:03;;;;;;;0.30;0.22;;;16.40;68.60;;;;;;5005104;28;20061;-75
2023/03/26 06:40:28;;;;;;;0.50;0.30;;;16.40;68.50;;;;;;4987200;28;20813;-75
2023/03/26 06:42:55;;;;;;;0.20;0.20;;;16.40;68.50;;;;;;5005540;28;20500;-75
2023/03/26 06:45:21;;;;;;;0.20;0.20;;;16.40;68.40;;;;;;4990634;28;20041;-75
2023/03/26 06:47:47;;;;;;;0.22;0.20;;;16.40;68.50;;;;;;5005318;28;20045;-75
2023/03/26 06:50:12;;;;;;;0.30;0.20;;;16.40;68.50;;;;;;5003353;28;20034;-75
2023/03/26 06:52:38;;;;;;;0.43;0.40;;;16.40;68.50;;;;;;5008466;28;20040;-75
2023/03/26 06:55:05;;;;;;;0.30;0.20;;;16.40;68.70;;;;;;5007752;28;20046;-75
2023/03/26 06:57:31;;;;;;;0.20;0.20;;;16.40;68.60;;;;;;5005509;28;20057;-75
2023/03/26 06:59:56;;;;;;;0.40;0.38;;;16.40;68.60;;;;;;5006038;28;20046;-75
2023/03/26 07:02:22;;;;;;;1.88;0.22;;;16.30;68.60;;;;;;5020195;28;20048;-75
2023/03/26 07:04:48;;;;;;;0.32;0.20;;;16.40;68.60;;;;;;5007875;28;20484;-75
2023/03/26 07:07:13;;;;;;;0.47;0.28;;;16.40;68.60;;;;;;5003987;28;20145;-75
2023/03/26 07:09:39;;;;;;;0.40;0.20;;;16.40;68.60;;;;;;4990165;28;20053;-75
2023/03/26 07:12:05;;;;;;;3.55;0.20;;;16.40;68.40;;;;;;4986693;28;20407;-75
2023/03/26 07:14:31;;;;;;;0.30;0.20;;;16.40;68.60;;;;;;4990445;28;20531;-75
2023/03/26 07:17:00;;;;;;;0.30;0.20;;;16.40;68.40;;;;;;5007032;28;20551;-75
2023/03/26 07:19:25;;;;;;;0.22;0.10;;;16.40;68.30;;;;;;5005181;28;20042;-74
2023/03/26 07:21:51;;;;;;;0.30;0.20;;;16.40;68.40;;;;;;5020122;28;20052;-75
2023/03/26 07:24:17;;;;;;;0.22;0.20;;;16.50;68.30;;;;;;5006040;28;20180;-75
2023/03/26 07:27:04;;;;;;;0.25;0.20;;;16.40;68.20;;;;;;5006526;28;20041;-75
2023/03/26 07:29:50;;;;;;;0.28;0.20;;;16.40;68.30;;;;;;5005384;28;20042;-75
2023/03/26 07:32:37;;;;;;;0.35;0.20;;;16.40;68.30;;;;;;4992145;28;20158;-75
2023/03/26 07:35:21;;;;;;;0.30;0.25;;;16.40;68.40;;;;;;5010256;28;20529;-75
2023/03/26 07:38:19;;;;;;;0.22;0.15;;;16.40;68.50;;;;;;5013637;28;20041;-75
2023/03/26 07:40:53;;;;;;;0.43;0.32;;;16.40;68.30;;;;;;5026441;28;20089;-75
2023/03/26 07:43:50;;;;;;;0.30;0.20;;;16.40;68.40;;;;;;5010262;28;20069;-75
2023/03/26 07:46:15;;;;;;;0.68;0.30;;;16.40;68.30;;;;;;5013024;28;20058;-76
2023/03/26 07:48:43;;;;;;;0.35;0.28;;;16.40;68.40;;;;;;5010950;28;20038;-74
2023/03/26 07:51:09;;;;;;;0.40;0.20;;;16.40;68.30;;;;;;5011169;28;20045;-75
2023/03/26 07:53:35;;;;;;;0.25;0.20;;;16.40;68.30;;;;;;5011799;28;20029;-75
2023/03/26 07:56:10;;;;;;;0.40;0.40;;;16.40;68.30;;;;;;4997320;28;20557;-75
2023/03/26 07:59:12;;;;;;;0.43;0.30;;;16.40;68.40;;;;;;5011413;28;20034;-75
2023/03/26 08:02:02;;;;;;;0.30;0.30;;;16.40;68.30;;;;;;5011914;28;20042;-75
2023/03/26 08:05:09;;;;;;;0.45;0.20;;;16.40;68.40;;;;;;5024889;28;20042;-75
2023/03/26 08:08:01;;;;;;;0.30;0.30;;;16.40;68.40;;;;;;5012590;28;20069;-74
2023/03/26 08:10:47;;;;;;;0.40;0.30;;;16.40;68.30;;;;;;5007031;28;20046;-75
2023/03/26 08:13:23;;;;;;;0.80;0.40;;;16.40;68.40;;;;;;5010499;28;20186;-75
2023/03/26 08:15:59;;;;;;;0.45;0.20;;;16.40;68.40;;;;;;5001305;28;20420;-74
2023/03/26 08:18:27;;;;;;;0.47;0.20;;;16.40;68.60;;;;;;5009877;28;20675;-74
2023/03/26 08:21:15;;;;;;;0.55;0.20;;;16.40;68.70;;;;;;5012082;28;20068;-75
2023/03/26 08:24:02;;;;;;;0.30;0.30;;;16.40;68.60;;;;;;5010231;28;20500;-75
2023/03/26 08:26:57;;;;;;;0.38;0.20;;;16.40;68.90;;;;;;5009700;28;20053;-74
2023/03/26 08:29:40;;;;;;;;;;;16.40;69.10;;;;;;5009233;28;20273;-73
2023/03/26 08:32:11;;;;;;;0.73;0.32;;;16.40;69.10;;;;;;5010083;28;20012;-75
2023/03/26 08:34:37;;;;;;;0.15;0.10;;;16.40;69.40;;;;;;5009088;28;20112;-75
2023/03/26 08:37:03;;;;;;;1.27;0.32;;;16.50;69.20;;;;;;5013102;28;20037;-75
2023/03/26 08:39:29;;;;;;;0.50;0.30;;;16.50;69.60;;;;;;4976714;28;20057;-75
2023/03/26 08:42:04;;;;;;;0.77;0.43;;;16.40;70.30;;;;;;5010378;28;20098;-77
2023/03/26 08:44:48;;;;;;;0.40;0.22;;;16.50;70.70;;;;;;5005609;28;20507;-77
2023/03/26 08:47:44;;;;;;;0.45;0.38;;;16.50;71.50;;;;;;5009423;28;20038;-77
2023/03/26 08:50:28;;;;;;;0.75;0.35;;;16.50;72.70;;;;;;5006841;28;20172;-77
2023/03/26 08:53:03;;;;;;;0.40;0.23;;;16.40;73.20;;;;;;4655286;28;10000139;-76
2023/03/26 08:56:00;;;;;;;0.52;0.20;;;16.40;72.90;;;;;;5005857;28;20045;-77
2023/03/26 08:58:53;;;;;;;0.63;0.30;;;16.50;73.80;;;;;;5006344;28;20041;-77
2023/03/26 09:01:34;;;;;;;1.70;0.30;;;16.50;74.90;;;;;;5008099;28;20065;-77
2023/03/26 09:04:28;;;;;;;0.85;0.20;;;16.50;74.80;;;;;;5008352;28;20054;-77
2023/03/26 09:07:42;;;;;;;0.98;0.15;;;16.50;74.80;;;;;;5005745;28;20070;-77
2023/03/26 09:10:26;;;;;;;0.10;0.10;;;16.50;73.00;;;;;;4659796;28;10001182;-77
2023/03/26 09:13:01;;;;;;;0.40;0.25;;;16.60;72.90;;;;;;5020133;28;20056;-79
2023/03/26 09:15:50;;;;;;;0.40;0.30;;;16.60;72.60;;;;;;5020648;28;20041;-78
2023/03/26 09:18:43;;;;;;;0.30;0.20;;;16.60;72.90;;;;;;5021111;28;20076;-77
2023/03/26 09:21:26;;;;;;;0.30;0.30;;;16.60;73.20;;;;;;5020208;28;20049;-77
2023/03/26 09:23:52;;;;;;;0.20;0.20;;;16.60;73.00;;;;;;5018758;28;20554;-77
2023/03/26 09:26:23;;;;;;;0.50;0.20;;;16.60;73.00;;;;;;5020318;28;20045;-78
2023/03/26 09:29:07;;;;;;;0.47;0.30;;;16.60;73.10;;;;;;5004757;28;20048;-80
2023/03/26 09:31:56;;;;;;;0.20;0.15;;;16.60;73.20;;;;;;5012583;28;20418;-79
2023/03/26 09:34:31;;;;;;;0.20;0.20;;;16.70;73.60;;;;;;5003837;28;20553;-77
2023/03/26 09:37:12;;;;;;;0.40;0.20;;;16.70;73.70;;;;;;5001806;28;20096;-78
2023/03/26 09:39:47;;;;;;;1.15;0.30;;;16.70;74.80;;;;;;5004873;28;20045;-78
2023/03/26 09:42:16;;;;;;;0.20;0.20;;;16.70;75.10;;;;;;5021385;28;20045;-77
2023/03/26 09:45:02;;;;;;;0.77;0.35;;;16.70;75.30;;;;;;5004482;28;20556;-79
2023/03/26 09:47:52;;;;;;;0.75;0.30;;;16.70;76.30;;;;;;4988990;28;20092;-79
2023/03/26 09:50:50;;;;;;;2.65;0.57;;;16.70;76.30;;;;;;5020932;28;20054;-77
2023/03/26 09:53:36;;;;;;;2.80;0.75;;;16.70;76.40;;;;;;5007750;28;20037;-77
2023/03/26 09:56:22;;;;;;;3.33;1.35;;;16.70;76.30;;;;;;5002428;28;20460;-78
2023/03/26 09:58:57;;;;;;;1.85;1.75;;;16.80;77.40;;;;;;4998307;28;20084;-78
2023/03/26 10:01:32;;;;;;;1.63;1.50;;;16.80;77.40;;;;;;5002530;28;20038;-78
2023/03/26 10:04:03;;;;;;;2.28;2.05;;;16.80;76.80;;;;;;5004268;28;20046;-79
2023/03/26 10:06:43;;;;;;;2.40;2.17;;;16.80;77.60;;;;;;5002312;28;20591;-78
2023/03/26 10:09:33;;;;;;;3.10;2.78;;;16.80;78.30;;;;;;5003269;28;20053;-78
2023/03/26 10:12:07;;;;;;;3.63;2.92;;;16.80;79.10;;;;;;4980938;28;20054;-78
2023/03/26 10:14:51;;;;;;;3.17;2.40;;;16.80;78.00;;;;;;5004702;28;20057;-78
2023/03/26 10:17:38;;;;;;;1.90;1.70;;;16.90;76.50;;;;;;5002232;28;20081;-78
2023/03/26 10:20:34;;;;;;;2.03;1.92;;;16.90;76.30;;;;;;5010580;28;20074;-77
2023/03/26 10:23:05;;;;;;;3.15;1.88;;;16.90;75.90;;;;;;5003238;28;20133;-78
2023/03/26 10:25:51;;;;;;;2.53;1.73;;;16.90;75.70;;;;;;5006232;28;20585;-78
2023/03/26 10:28:42;;;;;;;2.63;1.73;;;17.00;75.50;;;;;;5000859;28;20414;-76
2023/03/26 10:31:42;;;;;;;2.78;1.75;;;17.00;75.60;;;;;;4998049;28;20120;-80
2023/03/26 10:34:36;;;;;;;2.47;1.85;;;17.00;75.90;;;;;;5004987;28;20422;-81
2023/03/26 10:37:28;;;;;;;1.67;1.58;;;17.00;75.30;;;;;;5001244;28;20061;-77
2023/03/26 10:40:06;;;;;;;1.42;1.33;;;17.00;75.20;;;;;;5012251;28;20050;-76
2023/03/26 10:42:45;;;;;;;2.28;1.58;;;17.10;75.20;;;;;;5002311;28;20515;-77
2023/03/26 10:45:29;;;;;;;3.28;1.40;;;17.00;75.00;;;;;;4997062;28;20048;-77
2023/03/26 10:47:55;;;;;;;1.73;1.50;;;17.10;74.80;;;;;;5002073;28;20471;-76
2023/03/26 10:50:49;;;;;;;1.98;1.40;;;17.10;75.00;;;;;;5012816;28;20056;-77
2023/03/26 10:53:34;;;;;;;1.43;1.10;;;17.10;74.90;;;;;;5004041;28;20046;-77
2023/03/26 10:56:12;;;;;;;1.27;1.13;;;17.10;74.60;;;;;;4999615;28;20108;-77
2023/03/26 10:58:39;;;;;;;1.80;1.10;;;17.10;74.50;;;;;;4996058;28;20042;-78
2023/03/26 11:01:14;;;;;;;1.05;0.95;;;17.10;74.60;;;;;;5025512;28;20096;-78
2023/03/26 11:03:50;;;;;;;1.05;0.95;;;17.10;74.40;;;;;;4986471;28;20042;-78
2023/03/26 11:06:28;;;;;;;1.75;1.08;;;17.10;74.40;;;;;;5009529;28;20038;-78
2023/03/26 11:08:56;;;;;;;1.40;1.30;;;17.10;74.20;;;;;;5011564;28;20132;-78
2023/03/26 11:11:58;;;;;;;0.85;0.73;;;17.10;74.00;;;;;;5013410;28;20503;-77
2023/03/26 11:14:52;;;;;;;0.90;0.90;;;17.20;74.00;;;;;;5023602;28;20108;-78
2023/03/26 11:17:45;;;;;;;0.80;0.77;;;17.10;73.80;;;;;;4996756;28;20053;-78
2023/03/26 11:20:32;;;;;;;0.88;0.80;;;17.20;73.70;;;;;;5008983;28;20037;-78
2023/03/26 11:23:17;;;;;;;1.00;0.80;;;17.10;73.50;;;;;;4994260;28;20053;-78
2023/03/26 11:26:09;;;;;;;1.27;1.17;;;17.20;73.50;;;;;;5010167;28;20148;-78
2023/03/26 11:28:38;;;;;;;0.93;0.80;;;17.20;73.30;;;;;;5023999;28;20046;-77
2023/03/26 11:31:13;;;;;;;0.80;0.73;;;17.20;73.30;;;;;;5017477;28;20065;-77
2023/03/26 11:33:47;;;;;;;1.35;1.02;;;17.20;74.00;;;;;;5009820;28;20052;-78
2023/03/26 11:36:17;;;;;;;1.80;1.02;;;17.10;74.00;;;;;;5021484;28;20099;-77
2023/03/26 11:38:44;;;;;;;0.95;0.88;;;17.10;74.10;;;;;;4988714;28;20069;-77
2023/03/26 11:41:11;;;;;;;0.80;0.73;;;17.10;75.10;;;;;;5010882;28;20046;-77
2023/03/26 11:43:37;;;;;;;0.68;0.68;;;17.10;74.10;;;;;;5008968;28;20046;-77
2023/03/26 11:46:04;;;;;;;0.82;0.50;;;17.20;74.20;;;;;;5013993;28;20129;-77
2023/03/26 11:48:39;;;;;;;0.80;0.70;;;17.20;74.10;;;;;;5006325;28;20042;-78
2023/03/26 11:51:06;;;;;;;0.68;0.60;;;17.20;75.00;;;;;;5010940;28;20083;-77
2023/03/26 11:53:33;;;;;;;0.82;0.65;;;17.20;73.80;;;;;;5009111;28;20034;-78
2023/03/26 11:56:13;;;;;;;1.08;0.40;;;17.10;73.70;;;;;;5011516;28;20125;-77
2023/03/26 11:58:45;;;;;;;0.90;0.60;;;17.10;74.50;;;;;;5021057;28;20128;-78
2023/03/26 12:01:39;;;;;;;1.42;0.45;;;17.10;73.50;;;;;;5018562;28;20014;-77
2023/03/26 12:04:14;;;;;;;0.75;0.70;;;17.20;73.40;;;;;;5016030;28;20046;-77
2023/03/26 12:07:19;;;;;;;0.60;0.55;;;17.10;73.40;;;;;;4991969;28;20055;-77
2023/03/26 12:09:52;;;;;;;0.35;0.35;;;17.20;73.70;;;;;;4988993;28;20054;-77
2023/03/26 12:12:18;;;;;;;0.98;0.40;;;17.20;73.60;;;;;;4955299;28;20066;-77
2023/03/26 12:14:44;;;;;;;3.40;0.50;;;17.10;73.30;;;;;;4956273;28;20531;-78
2023/03/26 12:17:14;;;;;;;0.80;0.73;;;17.10;73.30;;;;;;4954715;28;20047;-77
2023/03/26 12:19:43;;;;;;;0.60;0.45;;;17.20;73.20;;;;;;4944456;28;20047;-78
2023/03/26 12:22:35;;;;;;;1.85;0.40;;;17.20;73.00;;;;;;4961013;28;20061;-79
2023/03/26 12:25:15;;;;;;;1.13;0.52;;;17.20;73.20;;;;;;4994452;28;20058;-82
2023/03/26 12:28:12;;;;;;;0.55;0.55;;;17.20;73.30;;;;;;4993703;28;20052;-80
2023/03/26 12:30:38;;;;;;;0.52;0.50;;;17.30;73.20;;;;;;4972287;28;20131;-82
2023/03/26 12:33:17;;;;;;;0.30;0.30;;;17.30;73.30;;;;;;4979136;28;20049;-80
2023/03/26 12:35:42;;;;;;;1.00;0.50;;;17.30;73.30;;;;;;4962530;28;20057;-79
2023/03/26 12:38:34;;;;;;;0.65;0.52;;;17.30;73.20;;;;;;4974472;28;20034;-79
2023/03/26 12:41:07;;;;;;;0.30;0.30;;;17.30;72.70;;;;;;4973094;28;20054;-79
2023/03/26 12:43:39;;;;;;;0.30;0.30;;;17.30;72.80;;;;;;4954665;28;20078;-79
2023/03/26 12:46:20;;;;;;;0.30;0.30;;;17.30;72.90;;;;;;4972362;28;20209;-79
2023/03/26 12:48:46;;;;;;;0.70;0.45;;;17.20;73.00;;;;;;5009883;28;20111;-79
2023/03/26 12:51:34;;;;;;;2.47;0.47;;;17.30;73.20;;;;;;5013015;28;20117;-79
2023/03/26 12:54:43;;;;;;;0.82;0.40;;;17.20;73.10;;;;;;4993332;28;20136;-80
2023/03/26 12:57:20;;;;;;;0.70;0.50;;;17.20;73.20;;;;;;5010077;28;20062;-80
2023/03/26 12:59:55;;;;;;;0.90;0.40;;;17.20;73.20;;;;;;5011418;28;20037;-80
2023/03/26 13:02:40;;;;;;;0.30;0.30;;;17.20;74.50;;;;;;5015911;28;20041;-79
2023/03/26 13:05:16;;;;;;;0.30;0.30;;;17.20;73.60;;;;;;4992073;28;20495;-80
2023/03/26 13:08:01;;;;;;;1.05;0.55;;;17.30;73.60;;;;;;5016207;28;20033;-79
2023/03/26 13:10:45;;;;;;;0.30;0.30;;;17.30;73.60;;;;;;5012548;28;20037;-81
2023/03/26 13:13:26;;;;;;;;;;;17.30;73.40;;;;;;5017340;28;20088;-81
2023/03/26 13:15:52;;;;;;;0.88;0.38;;;17.30;73.40;;;;;;5010299;28;19929;-82
2023/03/26 13:18:24;;;;;;;0.60;0.40;;;17.30;73.40;;;;;;5012911;28;20061;-82